Juno — C6YJ4 — position and weather

sailwx.info

Track history (hours):
 
Tides and Currents Weather Stations Pressure Air Temp Water Temp Dewpoint Dewpoint Depression Visibility Wind Speed Wind Dir Waves Ship Positions

Juno

Last reported at 2018-Jan-23 13:30 UTC. Time now 2018-Jan-23 13:48 UTC.
Position N 52°24' E 004°52'.

Length 189 m; draft 9.9 m.

Type: Cargo ship. MMSI: 311033600.

Date/timePositionNaut miles runAvg speedWind from/ knotsBaromVisibWave heightAir tempDewpointWater temp
2018-Jan-23 13:30N 52°24' E 004°52'0 0.0
2018-Jan-23 13:00N 52°24' E 004°52'0 0.0
2018-Jan-23 12:30N 52°24' E 004°52'0 0.0
2018-Jan-23 12:00N 52°24' E 004°52'0 0.0
2018-Jan-23 11:30N 52°24' E 004°52'0 0.0
2018-Jan-23 11:00N 52°24' E 004°52'0 0.0
2018-Jan-23 10:30N 52°24' E 004°52'0 0.0
2018-Jan-23 10:00N 52°24' E 004°52'0 0.0
2018-Jan-23 09:30N 52°24' E 004°52'0 0.0
2018-Jan-23 09:00N 52°24' E 004°52'0 0.0
2018-Jan-23 08:30N 52°24' E 004°52'0 0.0
2018-Jan-23 08:00N 52°24' E 004°52'0 0.0
2018-Jan-23 07:30N 52°24' E 004°52'0 0.0
2018-Jan-23 07:00N 52°24' E 004°52'0 0.0
2018-Jan-23 06:30N 52°24' E 004°52'0 0.0
2018-Jan-23 06:00N 52°24' E 004°52'0 0.0
2018-Jan-23 05:30N 52°24' E 004°52'0 0.0
2018-Jan-23 05:00N 52°24' E 004°52'0 0.0
2018-Jan-23 04:30N 52°24' E 004°52'0 0.0
2018-Jan-23 04:00N 52°24' E 004°52'0 0.2
2018-Jan-23 03:30N 52°24' E 004°52'1 2.4
2018-Jan-23 03:01N 52°25' E 004°51'3 6.8
2018-Jan-23 02:31N 52°26' E 004°46'3 6.9
2018-Jan-23 02:00N 52°27' E 004°41'3 5.1
2018-Jan-23 01:30N 52°28' E 004°36'0 0.4
2018-Jan-23 01:00N 52°28' E 004°36'2 3.9
2018-Jan-23 00:30N 52°28' E 004°33'4 8.6
2018-Jan-23 00:00N 52°28' E 004°26'2 4.3
2018-Jan-22 23:30N 52°27' E 004°23'1 1.9
2018-Jan-22 23:00N 52°27' E 004°21'0 0.3
2018-Jan-22 22:30N 52°27' E 004°22'1 1.4
2018-Jan-22 22:00N 52°27' E 004°23'1 2.0
2018-Jan-22 21:30N 52°28' E 004°24'1 2.1
2018-Jan-22 21:00N 52°28' E 004°23'3 6.4
2018-Jan-22 20:30N 52°29' E 004°17'510.2
2018-Jan-22 20:00N 52°29' E 004°09'612.3
2018-Jan-22 19:30N 52°27' E 003°59'612.3
2018-Jan-22 19:00N 52°26' E 003°49'6712.3
2018-Jan-22 13:34N 51°41' E 002°29'112.0
2018-Jan-22 13:30N 51°40' E 002°29'611.3
2018-Jan-22 13:00N 51°36' E 002°23'510.9
2018-Jan-22 12:30N 51°32' E 002°17'510.6
2018-Jan-22 12:00N 51°28' E 002°12'510.1
2018-Jan-22 11:30N 51°24' E 002°07'510.1
2018-Jan-22 11:00N 51°19' E 002°06'5 9.8
2018-Jan-22 10:30N 51°14' E 002°03'510.0
2018-Jan-22 10:00N 51°11' E 001°56'510.0
2018-Jan-22 09:30N 51°09' E 001°49'510.1
2018-Jan-22 09:00N 51°06' E 001°42'510.3
2018-Jan-22 08:30N 51°03' E 001°36'510.9
2018-Jan-22 08:00N 50°59' E 001°30'610.5
2018-Jan-22 07:27N 50°53' E 001°27'911.5
2018-Jan-22 06:42N 50°45' E 001°23'211.2
2018-Jan-22 06:29N 50°43' E 001°21'2411.2
2018-Jan-22 04:23N 50°29' E 000°52'1111.5
2018-Jan-22 03:24N 50°26' E 000°35'511.6
2018-Jan-22 02:58N 50°25' E 000°27'611.7
2018-Jan-22 02:30N 50°23' E 000°19'611.9
2018-Jan-22 02:00N 50°21' E 000°10'612.3
2018-Jan-22 01:30N 50°20' E 000°01'612.8
2018-Jan-22 01:00N 50°18' W 000°09'9812.7
2018-Jan-21 17:16N 49°51' W 002°36'3 9.6
2018-Jan-21 16:58N 49°50' W 002°41'5 9.6
2018-Jan-21 16:30N 49°49' W 002°47'5 9.7
2018-Jan-21 15:58N 49°47' W 002°55'7 9.7
2018-Jan-21 15:16N 49°45' W 003°05'410.0
2018-Jan-21 14:51N 49°43' W 003°11'510.2
2018-Jan-21 14:24N 49°41' W 003°17'  
2018-Jan-18 16:09N 39°21' W 009°51'1 9.0
2018-Jan-18 16:00N 39°19' W 009°51'4 9.0
2018-Jan-18 15:30N 39°15' W 009°51'5 9.0
2018-Jan-18 15:00N 39°10' W 009°51'4 8.8
2018-Jan-18 14:30N 39°06' W 009°51'4 8.8
2018-Jan-18 14:00N 39°02' W 009°51'4 8.7
2018-Jan-18 13:30N 38°57' W 009°51'4 8.7
2018-Jan-18 13:00N 38°53' W 009°51'5 9.0
2018-Jan-18 12:30N 38°48' W 009°52'5 9.1
2018-Jan-18 12:00N 38°44' W 009°52'4 8.6
2018-Jan-18 11:30N 38°40' W 009°51'4 8.7
2018-Jan-18 11:00N 38°35' W 009°49'4 8.6
2018-Jan-18 10:30N 38°31' W 009°48'4 8.4
2018-Jan-18 10:00N 38°27' W 009°47'4 8.5
2018-Jan-18 09:30N 38°23' W 009°46'4 8.5
2018-Jan-18 09:00N 38°19' W 009°45'4 8.3
2018-Jan-18 08:30N 38°15' W 009°43'4 8.4
2018-Jan-18 08:00N 38°11' W 009°41'4 8.7
2018-Jan-18 07:30N 38°07' W 009°40'4 8.7
2018-Jan-18 07:00N 38°02' W 009°39'4 8.7
2018-Jan-18 06:30N 37°58' W 009°38'5 8.8
2018-Jan-18 05:56N 37°53' W 009°36'4 8.6
2018-Jan-18 05:30N 37°50' W 009°35'5 8.9
2018-Jan-18 05:00N 37°45' W 009°33'4 8.7
2018-Jan-18 04:30N 37°41' W 009°32'4 8.9
2018-Jan-18 04:00N 37°37' W 009°30'6 8.3
2018-Jan-18 03:17N 37°31' W 009°28'2 8.0
2018-Jan-18 02:59N 37°29' W 009°27'5 8.0
2018-Jan-18 02:23N 37°24' W 009°25'4 7.8
2018-Jan-18 01:55N 37°21' W 009°24'3 8.1
2018-Jan-18 01:30N 37°18' W 009°24'4 8.3
2018-Jan-18 01:00N 37°13' W 009°24'  
Track history (hours):
 
Tides and Currents Weather Stations Pressure Air Temp Water Temp Dewpoint Dewpoint Depression Visibility Wind Speed Wind Dir Waves Ship Positions

Juno

Last reported at 2018-Jan-23 13:30 UTC. Time now 2018-Jan-23 13:48 UTC.
Position N 52°24' E 004°52'.

Length 189 m; draft 9.9 m.

Type: Cargo ship. MMSI: 311033600.

Date/timePositionNaut miles runAvg speedWind from/ knotsBaromVisibWave heightAir tempDewpointWater temp
2018-Jan-23 13:30N 52°24' E 004°52'0 0.0
2018-Jan-23 13:00N 52°24' E 004°52'0 0.0
2018-Jan-23 12:30N 52°24' E 004°52'0 0.0
2018-Jan-23 12:00N 52°24' E 004°52'0 0.0
2018-Jan-23 11:30N 52°24' E 004°52'0 0.0
2018-Jan-23 11:00N 52°24' E 004°52'0 0.0
2018-Jan-23 10:30N 52°24' E 004°52'0 0.0
2018-Jan-23 10:00N 52°24' E 004°52'0 0.0
2018-Jan-23 09:30N 52°24' E 004°52'0 0.0
2018-Jan-23 09:00N 52°24' E 004°52'0 0.0
2018-Jan-23 08:30N 52°24' E 004°52'0 0.0
2018-Jan-23 08:00N 52°24' E 004°52'0 0.0
2018-Jan-23 07:30N 52°24' E 004°52'0 0.0
2018-Jan-23 07:00N 52°24' E 004°52'0 0.0
2018-Jan-23 06:30N 52°24' E 004°52'0 0.0
2018-Jan-23 06:00N 52°24' E 004°52'0 0.0
2018-Jan-23 05:30N 52°24' E 004°52'0 0.0
2018-Jan-23 05:00N 52°24' E 004°52'0 0.0
2018-Jan-23 04:30N 52°24' E 004°52'0 0.0
2018-Jan-23 04:00N 52°24' E 004°52'0 0.2
2018-Jan-23 03:30N 52°24' E 004°52'1 2.4
2018-Jan-23 03:01N 52°25' E 004°51'3 6.8
2018-Jan-23 02:31N 52°26' E 004°46'3 6.9
2018-Jan-23 02:00N 52°27' E 004°41'3 5.1
2018-Jan-23 01:30N 52°28' E 004°36'0 0.4
2018-Jan-23 01:00N 52°28' E 004°36'2 3.9
2018-Jan-23 00:30N 52°28' E 004°33'4 8.6
2018-Jan-23 00:00N 52°28' E 004°26'2 4.3
2018-Jan-22 23:30N 52°27' E 004°23'1 1.9
2018-Jan-22 23:00N 52°27' E 004°21'0 0.3
2018-Jan-22 22:30N 52°27' E 004°22'1 1.4
2018-Jan-22 22:00N 52°27' E 004°23'1 2.0
2018-Jan-22 21:30N 52°28' E 004°24'1 2.1
2018-Jan-22 21:00N 52°28' E 004°23'3 6.4
2018-Jan-22 20:30N 52°29' E 004°17'510.2
2018-Jan-22 20:00N 52°29' E 004°09'612.3
2018-Jan-22 19:30N 52°27' E 003°59'612.3
2018-Jan-22 19:00N 52°26' E 003°49'6712.3
2018-Jan-22 13:34N 51°41' E 002°29'112.0
2018-Jan-22 13:30N 51°40' E 002°29'611.3
2018-Jan-22 13:00N 51°36' E 002°23'510.9
2018-Jan-22 12:30N 51°32' E 002°17'510.6
2018-Jan-22 12:00N 51°28' E 002°12'510.1
2018-Jan-22 11:30N 51°24' E 002°07'510.1
2018-Jan-22 11:00N 51°19' E 002°06'5 9.8
2018-Jan-22 10:30N 51°14' E 002°03'510.0
2018-Jan-22 10:00N 51°11' E 001°56'510.0
2018-Jan-22 09:30N 51°09' E 001°49'510.1
2018-Jan-22 09:00N 51°06' E 001°42'510.3
2018-Jan-22 08:30N 51°03' E 001°36'510.9
2018-Jan-22 08:00N 50°59' E 001°30'610.5
2018-Jan-22 07:27N 50°53' E 001°27'911.5
2018-Jan-22 06:42N 50°45' E 001°23'211.2
2018-Jan-22 06:29N 50°43' E 001°21'2411.2
2018-Jan-22 04:23N 50°29' E 000°52'1111.5
2018-Jan-22 03:24N 50°26' E 000°35'511.6
2018-Jan-22 02:58N 50°25' E 000°27'611.7
2018-Jan-22 02:30N 50°23' E 000°19'611.9
2018-Jan-22 02:00N 50°21' E 000°10'612.3
2018-Jan-22 01:30N 50°20' E 000°01'612.8
2018-Jan-22 01:00N 50°18' W 000°09'9812.7
2018-Jan-21 17:16N 49°51' W 002°36'3 9.6
2018-Jan-21 16:58N 49°50' W 002°41'5 9.6
2018-Jan-21 16:30N 49°49' W 002°47'5 9.7
2018-Jan-21 15:58N 49°47' W 002°55'7 9.7
2018-Jan-21 15:16N 49°45' W 003°05'410.0
2018-Jan-21 14:51N 49°43' W 003°11'510.2
2018-Jan-21 14:24N 49°41' W 003°17'  
2018-Jan-18 16:09N 39°21' W 009°51'1 9.0
2018-Jan-18 16:00N 39°19' W 009°51'4 9.0
2018-Jan-18 15:30N 39°15' W 009°51'5 9.0
2018-Jan-18 15:00N 39°10' W 009°51'4 8.8
2018-Jan-18 14:30N 39°06' W 009°51'4 8.8
2018-Jan-18 14:00N 39°02' W 009°51'4 8.7
2018-Jan-18 13:30N 38°57' W 009°51'4 8.7
2018-Jan-18 13:00N 38°53' W 009°51'5 9.0
2018-Jan-18 12:30N 38°48' W 009°52'5 9.1
2018-Jan-18 12:00N 38°44' W 009°52'4 8.6
2018-Jan-18 11:30N 38°40' W 009°51'4 8.7
2018-Jan-18 11:00N 38°35' W 009°49'4 8.6
2018-Jan-18 10:30N 38°31' W 009°48'4 8.4
2018-Jan-18 10:00N 38°27' W 009°47'4 8.5
2018-Jan-18 09:30N 38°23' W 009°46'4 8.5
2018-Jan-18 09:00N 38°19' W 009°45'4 8.3
2018-Jan-18 08:30N 38°15' W 009°43'4 8.4
2018-Jan-18 08:00N 38°11' W 009°41'4 8.7
2018-Jan-18 07:30N 38°07' W 009°40'4 8.7
2018-Jan-18 07:00N 38°02' W 009°39'4 8.7
2018-Jan-18 06:30N 37°58' W 009°38'5 8.8
2018-Jan-18 05:56N 37°53' W 009°36'4 8.6
2018-Jan-18 05:30N 37°50' W 009°35'5 8.9
2018-Jan-18 05:00N 37°45' W 009°33'4 8.7
2018-Jan-18 04:30N 37°41' W 009°32'4 8.9
2018-Jan-18 04:00N 37°37' W 009°30'6 8.3
2018-Jan-18 03:17N 37°31' W 009°28'2 8.0
2018-Jan-18 02:59N 37°29' W 009°27'5 8.0
2018-Jan-18 02:23N 37°24' W 009°25'4 7.8
2018-Jan-18 01:55N 37°21' W 009°24'3 8.1
2018-Jan-18 01:30N 37°18' W 009°24'4 8.3
2018-Jan-18 01:00N 37°13' W 009°24'  

Dump ship's entire track history